Salem, New Jersey
Current Conditions -  °F | °C
As of 5:51 PM on Saturday 22 Nov 2014 (Local Time) from KILG Reporting Station
Overcast Overcast  
Wind Chill: 40°   Ceiling: 8000
Heat Index: 44°   Visibility: 10mi
Dew Point: 19°   Wind: 8mph
Humidity: 37%   Direction: 200°SSW
Pressure: 30.31"   Gusts: NA
Location:  39.57°N, 75.47°W
Report Text: KILG 222251Z 20007KT 10SM OVC080 07/M07 A3031 RMK AO2 SLP264 T00671072
Loading
Personal Weather Stations






























Interactive Weather Map New forecast layout! Learn more

10-Day Weather Forecast

Advertisements
Track Severe Weather on mobile